sensor_id;sensor_type;location;lat;lon;timestamp;P1;durP1;ratioP1;P2;durP2;ratioP2
40755;SDS011;26461;45.630;9.418;2023-12-20T00:02:14;18.30;;;12.75;;
40755;SDS011;26461;45.630;9.418;2023-12-20T00:05:20;16.88;;;12.77;;
40755;SDS011;26461;45.630;9.418;2023-12-20T00:08:30;13.75;;;11.50;;
40755;SDS011;26461;45.630;9.418;2023-12-20T00:11:35;15.40;;;11.57;;
40755;SDS011;26461;45.630;9.418;2023-12-20T00:14:46;19.73;;;13.40;;
40755;SDS011;26461;45.630;9.418;2023-12-20T00:17:56;21.27;;;13.18;;
40755;SDS011;26461;45.630;9.418;2023-12-20T00:21:06;18.25;;;12.43;;
40755;SDS011;26461;45.630;9.418;2023-12-20T00:24:16;21.17;;;13.20;;
40755;SDS011;26461;45.630;9.418;2023-12-20T00:27:21;15.93;;;13.50;;
40755;SDS011;26461;45.630;9.418;2023-12-20T00:30:31;16.63;;;13.43;;
40755;SDS011;26461;45.630;9.418;2023-12-20T00:33:42;17.92;;;12.20;;
40755;SDS011;26461;45.630;9.418;2023-12-20T00:36:48;13.80;;;11.38;;
40755;SDS011;26461;45.630;9.418;2023-12-20T00:39:58;17.25;;;10.98;;
40755;SDS011;26461;45.630;9.418;2023-12-20T00:43:03;17.60;;;11.65;;
40755;SDS011;26461;45.630;9.418;2023-12-20T00:46:09;29.50;;;11.70;;
40755;SDS011;26461;45.630;9.418;2023-12-20T00:49:19;16.67;;;11.63;;
40755;SDS011;26461;45.630;9.418;2023-12-20T00:52:29;14.65;;;11.40;;
40755;SDS011;26461;45.630;9.418;2023-12-20T00:55:39;15.25;;;11.82;;
40755;SDS011;26461;45.630;9.418;2023-12-20T00:58:49;13.88;;;10.55;;
40755;SDS011;26461;45.630;9.418;2023-12-20T01:01:59;18.00;;;13.90;;
40755;SDS011;26461;45.630;9.418;2023-12-20T01:05:05;15.60;;;11.48;;
40755;SDS011;26461;45.630;9.418;2023-12-20T01:08:11;15.77;;;11.40;;
40755;SDS011;26461;45.630;9.418;2023-12-20T01:11:16;14.98;;;12.57;;
40755;SDS011;26461;45.630;9.418;2023-12-20T01:14:26;12.05;;;9.85;;
40755;SDS011;26461;45.630;9.418;2023-12-20T01:17:36;20.60;;;12.20;;
40755;SDS011;26461;45.630;9.418;2023-12-20T01:20:47;14.35;;;10.60;;
40755;SDS011;26461;45.630;9.418;2023-12-20T01:23:57;11.60;;;9.20;;
40755;SDS011;26461;45.630;9.418;2023-12-20T01:27:07;18.30;;;10.10;;
40755;SDS011;26461;45.630;9.418;2023-12-20T01:30:13;17.50;;;10.43;;
40755;SDS011;26461;45.630;9.418;2023-12-20T01:33:23;12.32;;;10.27;;
40755;SDS011;26461;45.630;9.418;2023-12-20T01:36:28;13.20;;;9.38;;
40755;SDS011;26461;45.630;9.418;2023-12-20T01:39:38;12.75;;;10.20;;
40755;SDS011;26461;45.630;9.418;2023-12-20T01:46:28;12.40;;;8.73;;
40755;SDS011;26461;45.630;9.418;2023-12-20T01:49:38;12.88;;;8.90;;
40755;SDS011;26461;45.630;9.418;2023-12-20T01:52:43;12.23;;;9.75;;
40755;SDS011;26461;45.630;9.418;2023-12-20T01:55:49;10.57;;;8.70;;
40755;SDS011;26461;45.630;9.418;2023-12-20T01:59:01;14.20;;;9.35;;
40755;SDS011;26461;45.630;9.418;2023-12-20T02:02:13;12.55;;;9.40;;
40755;SDS011;26461;45.630;9.418;2023-12-20T02:05:23;12.75;;;9.40;;
40755;SDS011;26461;45.630;9.418;2023-12-20T02:08:35;15.05;;;9.85;;
40755;SDS011;26461;45.630;9.418;2023-12-20T02:11:45;11.75;;;9.27;;
40755;SDS011;26461;45.630;9.418;2023-12-20T02:14:55;13.48;;;9.50;;
40755;SDS011;26461;45.630;9.418;2023-12-20T02:18:00;12.25;;;8.43;;
40755;SDS011;26461;45.630;9.418;2023-12-20T02:21:05;10.02;;;8.98;;
40755;SDS011;26461;45.630;9.418;2023-12-20T02:24:15;10.45;;;9.48;;
40755;SDS011;26461;45.630;9.418;2023-12-20T02:27:22;11.35;;;8.30;;
40755;SDS011;26461;45.630;9.418;2023-12-20T02:30:33;13.15;;;9.35;;
40755;SDS011;26461;45.630;9.418;2023-12-20T02:33:43;11.00;;;9.07;;
40755;SDS011;26461;45.630;9.418;2023-12-20T02:36:53;12.45;;;9.35;;
40755;SDS011;26461;45.630;9.418;2023-12-20T02:39:59;14.93;;;10.73;;
40755;SDS011;26461;45.630;9.418;2023-12-20T02:43:04;15.98;;;9.65;;
40755;SDS011;26461;45.630;9.418;2023-12-20T02:46:09;14.02;;;9.00;;
40755;SDS011;26461;45.630;9.418;2023-12-20T02:49:19;16.27;;;9.77;;
40755;SDS011;26461;45.630;9.418;2023-12-20T02:52:29;13.25;;;10.10;;
40755;SDS011;26461;45.630;9.418;2023-12-20T02:55:40;12.85;;;9.43;;
40755;SDS011;26461;45.630;9.418;2023-12-20T02:58:50;12.75;;;8.88;;
40755;SDS011;26461;45.630;9.418;2023-12-20T03:02:00;11.70;;;8.15;;
40755;SDS011;26461;45.630;9.418;2023-12-20T03:05:05;12.07;;;9.27;;
40755;SDS011;26461;45.630;9.418;2023-12-20T03:08:10;11.77;;;8.75;;
40755;SDS011;26461;45.630;9.418;2023-12-20T03:11:15;12.85;;;9.57;;
40755;SDS011;26461;45.630;9.418;2023-12-20T03:14:25;15.15;;;9.93;;
40755;SDS011;26461;45.630;9.418;2023-12-20T03:17:31;15.10;;;10.15;;
40755;SDS011;26461;45.630;9.418;2023-12-20T03:20:36;14.60;;;9.55;;
40755;SDS011;26461;45.630;9.418;2023-12-20T03:23:46;13.70;;;10.10;;
40755;SDS011;26461;45.630;9.418;2023-12-20T03:26:51;16.42;;;10.10;;
40755;SDS011;26461;45.630;9.418;2023-12-20T03:30:02;15.43;;;10.40;;
40755;SDS011;26461;45.630;9.418;2023-12-20T03:33:07;13.05;;;8.65;;
40755;SDS011;26461;45.630;9.418;2023-12-20T03:36:12;16.45;;;9.38;;
40755;SDS011;26461;45.630;9.418;2023-12-20T03:39:23;15.13;;;10.80;;
40755;SDS011;26461;45.630;9.418;2023-12-20T03:42:33;11.10;;;9.45;;
40755;SDS011;26461;45.630;9.418;2023-12-20T03:45:43;13.10;;;9.02;;
40755;SDS011;26461;45.630;9.418;2023-12-20T03:48:48;13.52;;;8.85;;
40755;SDS011;26461;45.630;9.418;2023-12-20T03:51:58;14.90;;;11.38;;
40755;SDS011;26461;45.630;9.418;2023-12-20T03:55:03;14.65;;;10.55;;
40755;SDS011;26461;45.630;9.418;2023-12-20T03:58:13;13.52;;;9.38;;
40755;SDS011;26461;45.630;9.418;2023-12-20T04:01:24;12.77;;;9.90;;
40755;SDS011;26461;45.630;9.418;2023-12-20T04:04:34;16.33;;;11.43;;
40755;SDS011;26461;45.630;9.418;2023-12-20T04:07:39;11.65;;;8.70;;
40755;SDS011;26461;45.630;9.418;2023-12-20T04:10:49;22.77;;;17.08;;
40755;SDS011;26461;45.630;9.418;2023-12-20T04:14:00;19.25;;;11.70;;
40755;SDS011;26461;45.630;9.418;2023-12-20T04:17:05;15.80;;;11.90;;
40755;SDS011;26461;45.630;9.418;2023-12-20T04:20:16;15.25;;;11.02;;
40755;SDS011;26461;45.630;9.418;2023-12-20T04:23:26;14.30;;;12.35;;
40755;SDS011;26461;45.630;9.418;2023-12-20T04:26:31;19.70;;;11.23;;
40755;SDS011;26461;45.630;9.418;2023-12-20T04:29:42;16.15;;;10.45;;
40755;SDS011;26461;45.630;9.418;2023-12-20T04:32:52;13.35;;;11.57;;
40755;SDS011;26461;45.630;9.418;2023-12-20T04:35:57;14.60;;;9.93;;
40755;SDS011;26461;45.630;9.418;2023-12-20T04:39:02;15.68;;;11.73;;
40755;SDS011;26461;45.630;9.418;2023-12-20T04:42:08;16.90;;;11.27;;
40755;SDS011;26461;45.630;9.418;2023-12-20T04:45:13;15.43;;;11.60;;
40755;SDS011;26461;45.630;9.418;2023-12-20T04:48:25;16.90;;;9.52;;
40755;SDS011;26461;45.630;9.418;2023-12-20T04:51:35;17.38;;;12.38;;
40755;SDS011;26461;45.630;9.418;2023-12-20T04:54:46;15.55;;;10.43;;
40755;SDS011;26461;45.630;9.418;2023-12-20T04:57:56;16.98;;;10.60;;
40755;SDS011;26461;45.630;9.418;2023-12-20T05:01:07;14.75;;;10.93;;
40755;SDS011;26461;45.630;9.418;2023-12-20T05:04:18;13.18;;;9.82;;
40755;SDS011;26461;45.630;9.418;2023-12-20T05:07:28;13.82;;;9.23;;
40755;SDS011;26461;45.630;9.418;2023-12-20T05:10:38;15.40;;;10.20;;
40755;SDS011;26461;45.630;9.418;2023-12-20T05:13:49;15.98;;;11.02;;
40755;SDS011;26461;45.630;9.418;2023-12-20T05:17:00;19.00;;;13.65;;
40755;SDS011;26461;45.630;9.418;2023-12-20T05:20:10;20.65;;;13.50;;
40755;SDS011;26461;45.630;9.418;2023-12-20T05:23:15;18.15;;;13.00;;
40755;SDS011;26461;45.630;9.418;2023-12-20T05:26:26;16.67;;;11.90;;
40755;SDS011;26461;45.630;9.418;2023-12-20T05:29:31;17.15;;;11.32;;
40755;SDS011;26461;45.630;9.418;2023-12-20T05:32:41;15.10;;;11.45;;
40755;SDS011;26461;45.630;9.418;2023-12-20T05:35:46;15.50;;;11.57;;
40755;SDS011;26461;45.630;9.418;2023-12-20T05:38:52;15.82;;;12.63;;
40755;SDS011;26461;45.630;9.418;2023-12-20T05:42:02;21.42;;;14.95;;
40755;SDS011;26461;45.630;9.418;2023-12-20T05:45:07;25.55;;;15.68;;
40755;SDS011;26461;45.630;9.418;2023-12-20T05:48:13;21.50;;;14.95;;
40755;SDS011;26461;45.630;9.418;2023-12-20T05:51:24;16.75;;;12.73;;
40755;SDS011;26461;45.630;9.418;2023-12-20T05:54:29;21.17;;;14.73;;
40755;SDS011;26461;45.630;9.418;2023-12-20T05:57:39;17.75;;;13.63;;
40755;SDS011;26461;45.630;9.418;2023-12-20T06:00:49;19.58;;;14.90;;
40755;SDS011;26461;45.630;9.418;2023-12-20T06:03:59;18.77;;;13.40;;
40755;SDS011;26461;45.630;9.418;2023-12-20T06:07:04;20.48;;;13.18;;
40755;SDS011;26461;45.630;9.418;2023-12-20T06:10:10;18.83;;;12.57;;
40755;SDS011;26461;45.630;9.418;2023-12-20T06:13:20;29.00;;;20.35;;
40755;SDS011;26461;45.630;9.418;2023-12-20T06:16:30;22.27;;;15.50;;
40755;SDS011;26461;45.630;9.418;2023-12-20T06:19:35;27.48;;;19.25;;
40755;SDS011;26461;45.630;9.418;2023-12-20T06:22:45;24.70;;;17.10;;
40755;SDS011;26461;45.630;9.418;2023-12-20T06:25:55;24.73;;;17.38;;
40755;SDS011;26461;45.630;9.418;2023-12-20T06:29:05;25.70;;;15.88;;
40755;SDS011;26461;45.630;9.418;2023-12-20T06:32:16;25.13;;;15.93;;
40755;SDS011;26461;45.630;9.418;2023-12-20T06:35:23;26.90;;;17.20;;
40755;SDS011;26461;45.630;9.418;2023-12-20T06:38:34;25.38;;;17.02;;
40755;SDS011;26461;45.630;9.418;2023-12-20T06:41:44;25.77;;;14.00;;
40755;SDS011;26461;45.630;9.418;2023-12-20T06:44:54;23.30;;;14.63;;
40755;SDS011;26461;45.630;9.418;2023-12-20T06:47:59;25.67;;;16.35;;
40755;SDS011;26461;45.630;9.418;2023-12-20T06:51:04;27.02;;;15.35;;
40755;SDS011;26461;45.630;9.418;2023-12-20T06:54:15;21.02;;;15.13;;
40755;SDS011;26461;45.630;9.418;2023-12-20T06:57:25;24.30;;;16.42;;
40755;SDS011;26461;45.630;9.418;2023-12-20T07:00:36;23.75;;;14.90;;
40755;SDS011;26461;45.630;9.418;2023-12-20T07:03:46;23.23;;;16.15;;
40755;SDS011;26461;45.630;9.418;2023-12-20T07:06:56;20.60;;;14.40;;
40755;SDS011;26461;45.630;9.418;2023-12-20T07:10:04;23.08;;;17.27;;
40755;SDS011;26461;45.630;9.418;2023-12-20T07:13:17;20.63;;;14.18;;
40755;SDS011;26461;45.630;9.418;2023-12-20T07:16:27;17.38;;;13.50;;
40755;SDS011;26461;45.630;9.418;2023-12-20T07:19:37;20.27;;;14.38;;
40755;SDS011;26461;45.630;9.418;2023-12-20T07:22:48;22.05;;;13.80;;
40755;SDS011;26461;45.630;9.418;2023-12-20T07:25:53;17.42;;;12.70;;
40755;SDS011;26461;45.630;9.418;2023-12-20T07:29:03;18.50;;;14.50;;
40755;SDS011;26461;45.630;9.418;2023-12-20T07:32:13;21.08;;;14.80;;
40755;SDS011;26461;45.630;9.418;2023-12-20T07:35:23;25.95;;;16.48;;
40755;SDS011;26461;45.630;9.418;2023-12-20T07:38:34;23.42;;;16.70;;
40755;SDS011;26461;45.630;9.418;2023-12-20T07:41:39;23.70;;;14.98;;
40755;SDS011;26461;45.630;9.418;2023-12-20T07:44:44;20.45;;;13.25;;
40755;SDS011;26461;45.630;9.418;2023-12-20T07:47:49;26.35;;;17.23;;
40755;SDS011;26461;45.630;9.418;2023-12-20T07:50:54;21.17;;;14.65;;
40755;SDS011;26461;45.630;9.418;2023-12-20T07:54:04;17.17;;;13.68;;
40755;SDS011;26461;45.630;9.418;2023-12-20T07:57:14;19.63;;;12.43;;
40755;SDS011;26461;45.630;9.418;2023-12-20T08:00:22;17.38;;;11.80;;
40755;SDS011;26461;45.630;9.418;2023-12-20T08:03:32;19.60;;;12.65;;
40755;SDS011;26461;45.630;9.418;2023-12-20T08:06:37;20.55;;;13.05;;
40755;SDS011;26461;45.630;9.418;2023-12-20T08:09:47;18.45;;;11.77;;
40755;SDS011;26461;45.630;9.418;2023-12-20T08:12:58;18.70;;;13.98;;
40755;SDS011;26461;45.630;9.418;2023-12-20T08:16:03;30.98;;;19.27;;
40755;SDS011;26461;45.630;9.418;2023-12-20T08:19:14;22.50;;;17.13;;
40755;SDS011;26461;45.630;9.418;2023-12-20T08:22:24;22.95;;;15.15;;
40755;SDS011;26461;45.630;9.418;2023-12-20T08:25:30;19.77;;;15.60;;
40755;SDS011;26461;45.630;9.418;2023-12-20T08:28:40;19.17;;;14.75;;
40755;SDS011;26461;45.630;9.418;2023-12-20T08:31:54;28.73;;;16.13;;
40755;SDS011;26461;45.630;9.418;2023-12-20T08:35:04;18.77;;;14.15;;
40755;SDS011;26461;45.630;9.418;2023-12-20T08:38:11;17.10;;;13.57;;
40755;SDS011;26461;45.630;9.418;2023-12-20T08:41:22;26.67;;;15.23;;
40755;SDS011;26461;45.630;9.418;2023-12-20T08:44:32;19.48;;;13.38;;
40755;SDS011;26461;45.630;9.418;2023-12-20T08:47:37;28.40;;;15.35;;
40755;SDS011;26461;45.630;9.418;2023-12-20T08:50:48;25.45;;;15.00;;
40755;SDS011;26461;45.630;9.418;2023-12-20T08:53:54;28.55;;;15.25;;
40755;SDS011;26461;45.630;9.418;2023-12-20T08:57:04;22.23;;;14.30;;
40755;SDS011;26461;45.630;9.418;2023-12-20T09:00:11;21.85;;;13.90;;
40755;SDS011;26461;45.630;9.418;2023-12-20T09:03:21;21.73;;;12.63;;
40755;SDS011;26461;45.630;9.418;2023-12-20T09:06:31;20.23;;;13.27;;
40755;SDS011;26461;45.630;9.418;2023-12-20T09:09:42;18.83;;;13.35;;
40755;SDS011;26461;45.630;9.418;2023-12-20T09:12:52;17.45;;;13.20;;
40755;SDS011;26461;45.630;9.418;2023-12-20T09:16:06;19.73;;;14.90;;
40755;SDS011;26461;45.630;9.418;2023-12-20T09:19:17;19.60;;;14.68;;
40755;SDS011;26461;45.630;9.418;2023-12-20T09:22:27;18.77;;;14.65;;
40755;SDS011;26461;45.630;9.418;2023-12-20T09:25:37;20.75;;;14.38;;
40755;SDS011;26461;45.630;9.418;2023-12-20T09:28:47;24.45;;;13.25;;
40755;SDS011;26461;45.630;9.418;2023-12-20T09:31:58;19.00;;;13.00;;
40755;SDS011;26461;45.630;9.418;2023-12-20T09:35:08;19.00;;;14.40;;
40755;SDS011;26461;45.630;9.418;2023-12-20T09:38:18;19.25;;;12.95;;
40755;SDS011;26461;45.630;9.418;2023-12-20T09:41:29;18.60;;;15.65;;
40755;SDS011;26461;45.630;9.418;2023-12-20T09:44:46;25.65;;;18.00;;
40755;SDS011;26461;45.630;9.418;2023-12-20T09:47:54;25.48;;;15.43;;
40755;SDS011;26461;45.630;9.418;2023-12-20T09:51:01;22.20;;;16.10;;
40755;SDS011;26461;45.630;9.418;2023-12-20T09:54:12;20.95;;;16.35;;
40755;SDS011;26461;45.630;9.418;2023-12-20T09:57:25;27.13;;;18.13;;
40755;SDS011;26461;45.630;9.418;2023-12-20T10:00:35;29.52;;;17.52;;
40755;SDS011;26461;45.630;9.418;2023-12-20T10:03:40;33.70;;;25.05;;
40755;SDS011;26461;45.630;9.418;2023-12-20T10:06:51;28.58;;;22.05;;
40755;SDS011;26461;45.630;9.418;2023-12-20T10:10:01;24.25;;;20.55;;
40755;SDS011;26461;45.630;9.418;2023-12-20T10:13:11;24.63;;;19.98;;
40755;SDS011;26461;45.630;9.418;2023-12-20T10:16:17;22.88;;;17.58;;
40755;SDS011;26461;45.630;9.418;2023-12-20T10:19:27;23.23;;;15.70;;
40755;SDS011;26461;45.630;9.418;2023-12-20T10:22:37;22.83;;;14.50;;
40755;SDS011;26461;45.630;9.418;2023-12-20T10:25:43;25.15;;;16.83;;
40755;SDS011;26461;45.630;9.418;2023-12-20T10:29:05;18.13;;;14.48;;
40755;SDS011;26461;45.630;9.418;2023-12-20T10:35:35;23.58;;;16.67;;
40755;SDS011;26461;45.630;9.418;2023-12-20T10:38:40;36.80;;;24.67;;
40755;SDS011;26461;45.630;9.418;2023-12-20T10:41:52;32.10;;;22.08;;
40755;SDS011;26461;45.630;9.418;2023-12-20T10:45:02;23.95;;;19.45;;
40755;SDS011;26461;45.630;9.418;2023-12-20T10:48:13;35.95;;;21.40;;
40755;SDS011;26461;45.630;9.418;2023-12-20T10:51:24;28.35;;;19.60;;
40755;SDS011;26461;45.630;9.418;2023-12-20T10:54:31;30.17;;;21.17;;
40755;SDS011;26461;45.630;9.418;2023-12-20T10:57:41;27.63;;;19.25;;
40755;SDS011;26461;45.630;9.418;2023-12-20T11:00:47;33.05;;;20.08;;
40755;SDS011;26461;45.630;9.418;2023-12-20T11:03:56;28.73;;;21.77;;
40755;SDS011;26461;45.630;9.418;2023-12-20T11:07:16;39.40;;;24.35;;
40755;SDS011;26461;45.630;9.418;2023-12-20T11:10:27;34.88;;;22.65;;
40755;SDS011;26461;45.630;9.418;2023-12-20T11:13:37;35.20;;;25.70;;
40755;SDS011;26461;45.630;9.418;2023-12-20T11:17:06;25.92;;;21.20;;
40755;SDS011;26461;45.630;9.418;2023-12-20T11:20:34;27.00;;;23.05;;
40755;SDS011;26461;45.630;9.418;2023-12-20T11:23:41;36.72;;;26.50;;
40755;SDS011;26461;45.630;9.418;2023-12-20T11:26:55;31.40;;;22.80;;
40755;SDS011;26461;45.630;9.418;2023-12-20T11:30:02;29.63;;;22.90;;
40755;SDS011;26461;45.630;9.418;2023-12-20T11:33:10;34.78;;;22.48;;
40755;SDS011;26461;45.630;9.418;2023-12-20T11:36:18;46.05;;;23.00;;
40755;SDS011;26461;45.630;9.418;2023-12-20T11:39:25;33.30;;;22.95;;
40755;SDS011;26461;45.630;9.418;2023-12-20T11:42:38;38.38;;;25.05;;
40755;SDS011;26461;45.630;9.418;2023-12-20T11:45:49;32.33;;;25.17;;
40755;SDS011;26461;45.630;9.418;2023-12-20T11:48:55;34.22;;;25.48;;
40755;SDS011;26461;45.630;9.418;2023-12-20T11:52:05;40.85;;;29.17;;
40755;SDS011;26461;45.630;9.418;2023-12-20T11:55:15;45.05;;;31.55;;
40755;SDS011;26461;45.630;9.418;2023-12-20T11:58:20;46.22;;;32.47;;
40755;SDS011;26461;45.630;9.418;2023-12-20T12:01:31;40.50;;;32.42;;
40755;SDS011;26461;45.630;9.418;2023-12-20T12:04:41;48.13;;;34.00;;
40755;SDS011;26461;45.630;9.418;2023-12-20T12:07:51;48.58;;;33.78;;
40755;SDS011;26461;45.630;9.418;2023-12-20T12:11:02;52.35;;;34.10;;
40755;SDS011;26461;45.630;9.418;2023-12-20T12:14:08;45.05;;;31.67;;
40755;SDS011;26461;45.630;9.418;2023-12-20T12:17:13;40.40;;;32.85;;
40755;SDS011;26461;45.630;9.418;2023-12-20T12:20:26;37.70;;;28.58;;
40755;SDS011;26461;45.630;9.418;2023-12-20T12:23:31;41.22;;;32.60;;
40755;SDS011;26461;45.630;9.418;2023-12-20T12:26:41;45.42;;;33.78;;
40755;SDS011;26461;45.630;9.418;2023-12-20T12:30:03;47.35;;;33.53;;
40755;SDS011;26461;45.630;9.418;2023-12-20T12:33:09;46.03;;;33.72;;
40755;SDS011;26461;45.630;9.418;2023-12-20T12:36:14;51.45;;;35.97;;
40755;SDS011;26461;45.630;9.418;2023-12-20T12:39:22;44.28;;;35.88;;
40755;SDS011;26461;45.630;9.418;2023-12-20T12:42:31;49.85;;;33.53;;
40755;SDS011;26461;45.630;9.418;2023-12-20T12:45:42;44.58;;;33.67;;
40755;SDS011;26461;45.630;9.418;2023-12-20T12:48:48;44.28;;;32.15;;
40755;SDS011;26461;45.630;9.418;2023-12-20T12:51:54;41.45;;;33.25;;
40755;SDS011;26461;45.630;9.418;2023-12-20T12:55:03;40.45;;;31.67;;
40755;SDS011;26461;45.630;9.418;2023-12-20T12:58:09;43.10;;;36.78;;
40755;SDS011;26461;45.630;9.418;2023-12-20T13:01:20;46.65;;;33.35;;
40755;SDS011;26461;45.630;9.418;2023-12-20T13:09:39;41.45;;;32.47;;
40755;SDS011;26461;45.630;9.418;2023-12-20T13:12:44;49.47;;;35.88;;
40755;SDS011;26461;45.630;9.418;2023-12-20T13:15:51;49.70;;;34.28;;
40755;SDS011;26461;45.630;9.418;2023-12-20T13:19:04;45.75;;;33.85;;
40755;SDS011;26461;45.630;9.418;2023-12-20T13:22:18;47.72;;;35.15;;
40755;SDS011;26461;45.630;9.418;2023-12-20T13:25:28;49.95;;;36.50;;
40755;SDS011;26461;45.630;9.418;2023-12-20T13:28:39;42.53;;;32.95;;
40755;SDS011;26461;45.630;9.418;2023-12-20T13:31:49;45.28;;;34.45;;
40755;SDS011;26461;45.630;9.418;2023-12-20T13:34:54;48.00;;;30.08;;
40755;SDS011;26461;45.630;9.418;2023-12-20T13:38:04;46.78;;;32.45;;
40755;SDS011;26461;45.630;9.418;2023-12-20T13:41:10;38.78;;;30.35;;
40755;SDS011;26461;45.630;9.418;2023-12-20T13:44:20;36.55;;;29.50;;
40755;SDS011;26461;45.630;9.418;2023-12-20T13:47:25;46.88;;;37.17;;
40755;SDS011;26461;45.630;9.418;2023-12-20T13:50:35;44.92;;;31.45;;
40755;SDS011;26461;45.630;9.418;2023-12-20T13:53:45;38.33;;;32.05;;
40755;SDS011;26461;45.630;9.418;2023-12-20T13:56:58;36.95;;;27.55;;
40755;SDS011;26461;45.630;9.418;2023-12-20T14:00:08;38.60;;;29.55;;
40755;SDS011;26461;45.630;9.418;2023-12-20T14:03:24;34.08;;;29.35;;
40755;SDS011;26461;45.630;9.418;2023-12-20T14:06:34;40.22;;;29.05;;
40755;SDS011;26461;45.630;9.418;2023-12-20T14:09:44;39.50;;;30.58;;
40755;SDS011;26461;45.630;9.418;2023-12-20T14:12:53;40.97;;;31.95;;
40755;SDS011;26461;45.630;9.418;2023-12-20T14:16:04;39.63;;;29.40;;
40755;SDS011;26461;45.630;9.418;2023-12-20T14:19:09;39.67;;;29.98;;
40755;SDS011;26461;45.630;9.418;2023-12-20T14:22:20;41.67;;;29.42;;
40755;SDS011;26461;45.630;9.418;2023-12-20T14:25:25;38.25;;;29.13;;
40755;SDS011;26461;45.630;9.418;2023-12-20T14:28:35;36.70;;;28.25;;
40755;SDS011;26461;45.630;9.418;2023-12-20T14:31:40;34.78;;;27.70;;
40755;SDS011;26461;45.630;9.418;2023-12-20T14:34:47;41.33;;;29.50;;
40755;SDS011;26461;45.630;9.418;2023-12-20T14:37:52;38.15;;;29.67;;
40755;SDS011;26461;45.630;9.418;2023-12-20T14:40:57;36.00;;;26.27;;
40755;SDS011;26461;45.630;9.418;2023-12-20T14:44:08;34.13;;;24.77;;
40755;SDS011;26461;45.630;9.418;2023-12-20T14:47:18;38.63;;;27.17;;
40755;SDS011;26461;45.630;9.418;2023-12-20T14:50:23;36.38;;;26.88;;
40755;SDS011;26461;45.630;9.418;2023-12-20T14:53:34;34.58;;;26.65;;
40755;SDS011;26461;45.630;9.418;2023-12-20T14:56:46;33.42;;;25.55;;
40755;SDS011;26461;45.630;9.418;2023-12-20T14:59:56;39.65;;;28.65;;
40755;SDS011;26461;45.630;9.418;2023-12-20T15:03:07;44.45;;;28.77;;
40755;SDS011;26461;45.630;9.418;2023-12-20T15:06:13;32.03;;;25.75;;
40755;SDS011;26461;45.630;9.418;2023-12-20T15:09:25;42.70;;;28.27;;
40755;SDS011;26461;45.630;9.418;2023-12-20T15:12:31;36.15;;;25.13;;
40755;SDS011;26461;45.630;9.418;2023-12-20T15:15:38;33.30;;;25.88;;
40755;SDS011;26461;45.630;9.418;2023-12-20T15:18:49;36.78;;;29.02;;
40755;SDS011;26461;45.630;9.418;2023-12-20T15:21:59;38.15;;;25.33;;
40755;SDS011;26461;45.630;9.418;2023-12-20T15:25:09;36.67;;;25.40;;
40755;SDS011;26461;45.630;9.418;2023-12-20T15:28:20;40.22;;;28.17;;
40755;SDS011;26461;45.630;9.418;2023-12-20T15:31:30;34.35;;;26.42;;
40755;SDS011;26461;45.630;9.418;2023-12-20T15:34:42;37.72;;;27.23;;
40755;SDS011;26461;45.630;9.418;2023-12-20T15:37:52;36.00;;;25.23;;
40755;SDS011;26461;45.630;9.418;2023-12-20T15:41:02;40.53;;;26.33;;
40755;SDS011;26461;45.630;9.418;2023-12-20T15:44:07;33.40;;;24.83;;
40755;SDS011;26461;45.630;9.418;2023-12-20T15:47:13;33.15;;;27.85;;
40755;SDS011;26461;45.630;9.418;2023-12-20T15:50:25;44.35;;;28.88;;
40755;SDS011;26461;45.630;9.418;2023-12-20T15:53:30;36.45;;;25.25;;
40755;SDS011;26461;45.630;9.418;2023-12-20T15:56:35;35.50;;;26.75;;
40755;SDS011;26461;45.630;9.418;2023-12-20T15:59:41;38.42;;;25.35;;
40755;SDS011;26461;45.630;9.418;2023-12-20T16:02:51;35.05;;;26.98;;
40755;SDS011;26461;45.630;9.418;2023-12-20T16:05:56;37.88;;;29.80;;
40755;SDS011;26461;45.630;9.418;2023-12-20T16:09:03;38.78;;;26.73;;
40755;SDS011;26461;45.630;9.418;2023-12-20T16:12:09;36.72;;;26.15;;
40755;SDS011;26461;45.630;9.418;2023-12-20T16:15:14;36.58;;;25.20;;
40755;SDS011;26461;45.630;9.418;2023-12-20T16:18:25;39.50;;;26.73;;
40755;SDS011;26461;45.630;9.418;2023-12-20T16:21:35;39.17;;;26.10;;
40755;SDS011;26461;45.630;9.418;2023-12-20T16:24:40;36.00;;;28.83;;
40755;SDS011;26461;45.630;9.418;2023-12-20T16:27:51;47.60;;;27.58;;
40755;SDS011;26461;45.630;9.418;2023-12-20T16:31:01;31.42;;;25.88;;
40755;SDS011;26461;45.630;9.418;2023-12-20T16:34:06;36.55;;;26.05;;
40755;SDS011;26461;45.630;9.418;2023-12-20T16:37:16;37.20;;;26.52;;
40755;SDS011;26461;45.630;9.418;2023-12-20T16:40:26;37.00;;;26.52;;
40755;SDS011;26461;45.630;9.418;2023-12-20T16:43:36;36.80;;;27.13;;
40755;SDS011;26461;45.630;9.418;2023-12-20T16:46:47;38.10;;;27.52;;
40755;SDS011;26461;45.630;9.418;2023-12-20T16:49:52;36.55;;;27.67;;
40755;SDS011;26461;45.630;9.418;2023-12-20T16:52:57;44.03;;;29.08;;
40755;SDS011;26461;45.630;9.418;2023-12-20T16:56:02;35.80;;;27.75;;
40755;SDS011;26461;45.630;9.418;2023-12-20T16:59:08;42.88;;;28.25;;
40755;SDS011;26461;45.630;9.418;2023-12-20T17:02:13;42.03;;;28.10;;
40755;SDS011;26461;45.630;9.418;2023-12-20T17:05:20;40.60;;;29.20;;
40755;SDS011;26461;45.630;9.418;2023-12-20T17:08:30;48.45;;;30.17;;
40755;SDS011;26461;45.630;9.418;2023-12-20T17:11:37;44.30;;;32.97;;
40755;SDS011;26461;45.630;9.418;2023-12-20T17:14:42;44.55;;;30.23;;
40755;SDS011;26461;45.630;9.418;2023-12-20T17:17:52;50.63;;;33.80;;
40755;SDS011;26461;45.630;9.418;2023-12-20T17:21:02;45.85;;;32.53;;
40755;SDS011;26461;45.630;9.418;2023-12-20T17:24:07;36.33;;;26.88;;
40755;SDS011;26461;45.630;9.418;2023-12-20T17:27:17;38.60;;;27.15;;
40755;SDS011;26461;45.630;9.418;2023-12-20T17:30:28;40.22;;;30.08;;
40755;SDS011;26461;45.630;9.418;2023-12-20T17:33:38;42.92;;;30.95;;
40755;SDS011;26461;45.630;9.418;2023-12-20T17:36:48;43.70;;;30.20;;
40755;SDS011;26461;45.630;9.418;2023-12-20T17:40:00;46.35;;;33.95;;
40755;SDS011;26461;45.630;9.418;2023-12-20T17:43:10;43.90;;;32.58;;
40755;SDS011;26461;45.630;9.418;2023-12-20T17:46:20;55.22;;;38.22;;
40755;SDS011;26461;45.630;9.418;2023-12-20T17:49:30;60.50;;;40.58;;
40755;SDS011;26461;45.630;9.418;2023-12-20T17:52:36;49.78;;;35.03;;
40755;SDS011;26461;45.630;9.418;2023-12-20T17:55:46;52.90;;;36.80;;
40755;SDS011;26461;45.630;9.418;2023-12-20T17:58:51;47.95;;;35.53;;
40755;SDS011;26461;45.630;9.418;2023-12-20T18:02:03;54.60;;;38.03;;
40755;SDS011;26461;45.630;9.418;2023-12-20T18:05:13;50.53;;;36.20;;
40755;SDS011;26461;45.630;9.418;2023-12-20T18:08:18;53.03;;;34.60;;
40755;SDS011;26461;45.630;9.418;2023-12-20T18:11:28;60.13;;;36.75;;
40755;SDS011;26461;45.630;9.418;2023-12-20T18:14:38;58.88;;;42.70;;
40755;SDS011;26461;45.630;9.418;2023-12-20T18:17:48;59.65;;;42.78;;
40755;SDS011;26461;45.630;9.418;2023-12-20T18:20:53;66.53;;;41.80;;
40755;SDS011;26461;45.630;9.418;2023-12-20T18:28:01;67.95;;;48.25;;
40755;SDS011;26461;45.630;9.418;2023-12-20T18:31:11;66.82;;;45.20;;
40755;SDS011;26461;45.630;9.418;2023-12-20T18:34:22;62.92;;;40.92;;
40755;SDS011;26461;45.630;9.418;2023-12-20T18:37:33;63.28;;;41.63;;
40755;SDS011;26461;45.630;9.418;2023-12-20T18:40:39;52.15;;;37.95;;
40755;SDS011;26461;45.630;9.418;2023-12-20T18:43:51;53.22;;;38.83;;